Weather at Charlotte Douglas International Airport

Public forecast

Using degrees Fahrenheit for public forecast. Weather courtesy of forecast.io.

Current aviation weather report (METAR) for Charlotte Douglas International Airport

Retrieved 2021/04/20 21:52 UTC (41 minutes ago):

KCLT 202152Z 19013G21KT 10SM BKN095 23/06 A2993 RMK AO2 SLP133 T02280056

Aviation forecast (TAF) for Charlotte Douglas International Airport

Retrieved 2021/04/20 18:42 UTC (4 hours ago):

TAF KCLT 201739Z 2018/2124 20010G17KT P6SM SCT060 SCT180 FM210000 18007KT P6SM FEW070 BKN180 FM211200 25009G16KT P6SM SCT060 BKN250 FM211400 30014G25KT P6SM FEW040 SCT050